Temp: 17.6°C   Baro: 1023.5mb
  Wind: 4.9mph   Dir: WNW (298°)
  Rain: 7.0mm (0.0mm/hr)
  Solar: 167W/m2  Hum: 66%

Historic data

Bath Spa Weather Station Historical Data
Daily Summary for August 02, 2022 Units:  Metric    English   Both
Daily Weekly Monthly Yearly Custom
  High: Low: Average:
Temperature: 25.1 °C 18.6 °C 20.9 °C
Dew Point: 19.3 °C 15.5 °C 17.5 °C
Humidity: 87% 67.8% 81%
Wind Speed: 20.4km/h 0.3km/h 8.7km/h
Wind Gust: 33.8km/h - -
Wind- - WSW
Pressure: 1017.2 hPa 1013.8 hPa -
Precipitation: 0 mm    
Historical Graphs
 
 
Tabular Data for August 02, 2022
Time Temperature Dew Point Pressure Wind Wind Speed Wind Gust Humidity Rainfall Rate (Hourly) solar
00:09 18.8 °C 15.7 °C 1017.2 hPa WSW 2.7 km/h 6.4 km/h 81.8% 0 mm 0 W/m2
00:14 18.8 °C 15.5 °C 1017.2 hPa WSW 2.1 km/h 6.4 km/h 81% 0 mm 0 W/m2
00:19 18.8 °C 15.6 °C 1017.2 hPa SW 3.5 km/h 8 km/h 81% 0 mm 0 W/m2
00:24 18.9 °C 15.6 °C 1017.2 hPa SW 0.3 km/h 4.8 km/h 81% 0 mm 0 W/m2
00:29 18.9 °C 15.6 °C 1017.2 hPa SW 1.9 km/h 3.2 km/h 81% 0 mm 0 W/m2
00:34 18.9 °C 15.6 °C 1017.2 hPa SW 1.3 km/h 4.8 km/h 81% 0 mm 0 W/m2
00:39 18.9 °C 15.6 °C 1017.2 hPa SW 1.8 km/h 6.4 km/h 81% 0 mm 0 W/m2
00:44 18.9 °C 15.7 °C 1017.2 hPa SW 2.4 km/h 6.4 km/h 81.2% 0 mm 0 W/m2
00:49 18.8 °C 15.7 °C 1017.2 hPa SW 2.4 km/h 4.8 km/h 82% 0 mm 0 W/m2
00:54 18.7 °C 15.7 °C 1017.2 hPa SW 1.3 km/h 4.8 km/h 82% 0 mm 0 W/m2
00:59 18.7 °C 15.7 °C 1017.2 hPa SW 5.1 km/h 8 km/h 82.6% 0 mm 0 W/m2
01:04 18.7 °C 15.8 °C 1016.8 hPa SW 3.4 km/h 9.7 km/h 83% 0 mm 0 W/m2
01:09 18.8 °C 15.8 °C 1017.2 hPa WSW 7.1 km/h 14.5 km/h 83% 0 mm 0 W/m2
01:14 18.8 °C 15.9 °C 1016.8 hPa WSW 8.4 km/h 16.1 km/h 83% 0 mm 0 W/m2
01:19 18.9 °C 15.9 °C 1016.8 hPa WSW 12.2 km/h 17.7 km/h 83% 0 mm 0 W/m2
01:24 19 °C 16 °C 1016.8 hPa WSW 7.7 km/h 14.5 km/h 83% 0 mm 0 W/m2
01:29 19 °C 16 °C 1016.8 hPa SW 6.4 km/h 12.9 km/h 83% 0 mm 0 W/m2
01:34 19.1 °C 16.1 °C 1016.8 hPa WSW 6.4 km/h 16.1 km/h 83% 0 mm 0 W/m2
01:39 19.1 °C 16.1 °C 1016.8 hPa SW 7.9 km/h 16.1 km/h 83% 0 mm 0 W/m2
01:44 19.1 °C 16.1 °C 1016.8 hPa WSW 7.6 km/h 16.1 km/h 83% 0 mm 0 W/m2
01:49 19 °C 16 °C 1016.8 hPa WSW 6.6 km/h 16.1 km/h 83% 0 mm 0 W/m2
01:54 19 °C 16 °C 1016.8 hPa WSW 6 km/h 14.5 km/h 83.2% 0 mm 0 W/m2
01:59 19 °C 16.2 °C 1016.5 hPa WSW 9.5 km/h 16.1 km/h 84% 0 mm 0 W/m2
02:04 18.9 °C 16.2 °C 1016.5 hPa WSW 5.5 km/h 16.1 km/h 84% 0 mm 0 W/m2
02:09 19 °C 16.2 °C 1016.5 hPa WSW 6.4 km/h 17.7 km/h 84% 0 mm 0 W/m2
02:14 19 °C 16.2 °C 1016.5 hPa WSW 8.5 km/h 14.5 km/h 84% 0 mm 0 W/m2
02:19 19 °C 16.2 °C 1016.1 hPa SW 6.4 km/h 12.9 km/h 84% 0 mm 0 W/m2
02:24 19 °C 16.2 °C 1016.5 hPa WSW 7.7 km/h 16.1 km/h 84% 0 mm 0 W/m2
02:29 19 °C 16.2 °C 1016.5 hPa WSW 7.7 km/h 12.9 km/h 84% 0 mm 0 W/m2
02:34 18.9 °C 16.2 °C 1016.1 hPa WSW 7.2 km/h 14.5 km/h 84% 0 mm 0 W/m2
02:39 18.9 °C 16.2 °C 1016.1 hPa SW 11.6 km/h 17.7 km/h 84.4% 0 mm 0 W/m2
02:44 18.9 °C 16.3 °C 1016.5 hPa SW 9.7 km/h 16.1 km/h 85% 0 mm 0 W/m2
02:49 18.9 °C 16.3 °C 1016.5 hPa West 6 km/h 14.5 km/h 85% 0 mm 0 W/m2
02:54 18.9 °C 16.3 °C 1016.5 hPa WSW 7.4 km/h 14.5 km/h 85% 0 mm 0 W/m2
02:59 18.8 °C 16.3 °C 1016.1 hPa West 7.1 km/h 14.5 km/h 85% 0 mm 0 W/m2
03:04 18.8 °C 16.2 °C 1016.1 hPa WSW 7.6 km/h 16.1 km/h 85% 0 mm 0 W/m2
03:09 18.8 °C 16.2 °C 1016.1 hPa WSW 8.7 km/h 16.1 km/h 85% 0 mm 0 W/m2
03:14 18.8 °C 16.2 °C 1016.1 hPa WSW 5.6 km/h 12.9 km/h 85% 0 mm 0 W/m2
03:19 18.7 °C 16.2 °C 1016.1 hPa WSW 9 km/h 16.1 km/h 85% 0 mm 0 W/m2
03:24 18.7 °C 16.2 °C 1016.1 hPa SW 8 km/h 16.1 km/h 85.4% 0 mm 0 W/m2
03:29 18.7 °C 16.3 °C 1016.1 hPa SW 7.2 km/h 12.9 km/h 86% 0 mm 0 W/m2
03:34 18.7 °C 16.2 °C 1016.1 hPa SW 11.3 km/h 16.1 km/h 86% 0 mm 0 W/m2
03:38 18.7 °C 16.2 °C 1016.1 hPa SW 8.9 km/h 14.5 km/h 86% 0 mm 0 W/m2
03:44 18.6 °C 16.2 °C 1016.1 hPa WSW 9.7 km/h 17.7 km/h 86% 0 mm 0 W/m2
03:49 18.7 °C 16.2 °C 1015.8 hPa WSW 9.7 km/h 19.3 km/h 86% 0 mm 0 W/m2
03:54 18.7 °C 16.3 °C 1015.8 hPa WSW 10 km/h 16.1 km/h 86% 0 mm 0 W/m2
03:59 18.7 °C 16.3 °C 1015.8 hPa WSW 10.1 km/h 19.3 km/h 86% 0 mm 0 W/m2
04:04 18.7 °C 16.3 °C 1015.8 hPa SW 8.7 km/h 19.3 km/h 86% 0 mm 0 W/m2
04:09 18.7 °C 16.3 °C 1015.8 hPa SW 7.1 km/h 16.1 km/h 86% 0 mm 0 W/m2
04:14 18.7 °C 16.3 °C 1015.8 hPa SW 9.8 km/h 16.1 km/h 86% 0 mm 0 W/m2
04:19 18.7 °C 16.3 °C 1015.8 hPa SW 11.9 km/h 19.3 km/h 86% 0 mm 0 W/m2
04:24 18.7 °C 16.3 °C 1015.5 hPa WSW 10.1 km/h 17.7 km/h 86% 0 mm 0 W/m2
04:29 18.7 °C 16.3 °C 1015.5 hPa WSW 10 km/h 17.7 km/h 86% 0 mm 0 W/m2
04:34 18.7 °C 16.3 °C 1015.5 hPa WSW 6.6 km/h 14.5 km/h 86% 0 mm 0 W/m2
04:39 18.8 °C 16.4 °C 1015.5 hPa WSW 6.6 km/h 14.5 km/h 86% 0 mm 0 W/m2
04:44 18.8 °C 16.4 °C 1015.5 hPa SW 5.8 km/h 12.9 km/h 86% 0 mm 0 W/m2
04:49 18.7 °C 16.3 °C 1015.5 hPa SW 6.6 km/h 14.5 km/h 86% 0 mm 0 W/m2
04:54 18.7 °C 16.3 °C 1015.5 hPa SW 7.2 km/h 14.5 km/h 86.2% 0 mm 0 W/m2
04:59 18.7 °C 16.5 °C 1015.5 hPa SW 6.8 km/h 14.5 km/h 87% 0 mm 0 W/m2
05:04 18.7 °C 16.4 °C 1015.5 hPa SW 6 km/h 11.3 km/h 87% 0 mm 0 W/m2
05:09 18.6 °C 16.4 °C 1015.5 hPa SW 6.4 km/h 9.7 km/h 87% 0 mm 0 W/m2
05:14 18.6 °C 16.4 °C 1015.5 hPa SW 5.1 km/h 11.3 km/h 87% 0 mm 0 W/m2
05:19 18.6 °C 16.4 °C 1015.5 hPa SW 3.4 km/h 6.4 km/h 87% 0 mm 0 W/m2
05:24 18.6 °C 16.4 °C 1015.5 hPa SW 4.7 km/h 11.3 km/h 87% 0 mm 0 W/m2
05:29 18.6 °C 16.4 °C 1015.5 hPa WSW 4.7 km/h 11.3 km/h 87% 0 mm 0 W/m2
05:34 18.6 °C 16.4 °C 1015.5 hPa SW 2.7 km/h 11.3 km/h 87% 0 mm 0 W/m2
05:39 18.6 °C 16.4 °C 1015.5 hPa SW 4.2 km/h 6.4 km/h 87% 0 mm 0 W/m2
05:44 18.6 °C 16.4 °C 1015.5 hPa SW 3.9 km/h 8 km/h 87% 0 mm 0 W/m2
05:49 18.6 °C 16.4 °C 1015.5 hPa West 5.8 km/h 11.3 km/h 87% 0 mm 0 W/m2
05:54 18.6 °C 16.4 °C 1015.5 hPa West 5 km/h 8 km/h 87% 0 mm 7 W/m2
05:59 18.6 °C 16.4 °C 1015.5 hPa WSW 7.1 km/h 12.9 km/h 87% 0 mm 9 W/m2
06:04 18.7 °C 16.4 °C 1015.5 hPa West 3.5 km/h 11.3 km/h 87% 0 mm 16 W/m2
06:09 18.7 °C 16.5 °C 1015.5 hPa WSW 2.7 km/h 8 km/h 87% 0 mm 18 W/m2
06:14 18.7 °C 16.5 °C 1015.5 hPa SW 7.2 km/h 16.1 km/h 87% 0 mm 23 W/m2
06:19 18.8 °C 16.6 °C 1015.5 hPa WSW 6.3 km/h 14.5 km/h 87% 0 mm 23 W/m2
06:24 18.8 °C 16.6 °C 1015.5 hPa SW 6.8 km/h 14.5 km/h 87% 0 mm 25 W/m2
06:29 18.8 °C 16.6 °C 1015.5 hPa SW 10 km/h 16.1 km/h 87% 0 mm 26 W/m2
06:34 18.8 °C 16.6 °C 1015.5 hPa WSW 9.7 km/h 16.1 km/h 87% 0 mm 39 W/m2
06:39 18.9 °C 16.7 °C 1015.5 hPa SW 10 km/h 20.9 km/h 87% 0 mm 51 W/m2
06:44 18.9 °C 16.7 °C 1015.5 hPa SW 9.7 km/h 22.5 km/h 87% 0 mm 53 W/m2
06:49 18.9 °C 16.7 °C 1015.5 hPa SW 6.3 km/h 17.7 km/h 87% 0 mm 54 W/m2
06:54 18.9 °C 16.7 °C 1015.5 hPa SW 10.1 km/h 19.3 km/h 87% 0 mm 54 W/m2
06:59 18.9 °C 16.7 °C 1015.5 hPa SW 10.1 km/h 22.5 km/h 86.8% 0 mm 65 W/m2
07:04 19 °C 16.8 °C 1015.5 hPa SW 12.2 km/h 19.3 km/h 87% 0 mm 77 W/m2
07:09 19 °C 16.7 °C 1015.5 hPa SW 9.3 km/h 19.3 km/h 86.8% 0 mm 84 W/m2
07:14 19.1 °C 16.8 °C 1015.5 hPa SW 8.5 km/h 19.3 km/h 87% 0 mm 79 W/m2
07:19 19.1 °C 16.9 °C 1015.5 hPa WSW 8.4 km/h 20.9 km/h 87% 0 mm 84 W/m2
07:24 19.2 °C 16.9 °C 1015.5 hPa WSW 6.6 km/h 20.9 km/h 87% 0 mm 113 W/m2
07:29 19.2 °C 16.8 °C 1015.5 hPa WSW 9.8 km/h 19.3 km/h 86% 0 mm 142 W/m2
07:34 19.2 °C 16.8 °C 1015.5 hPa West 6.6 km/h 16.1 km/h 86% 0 mm 144 W/m2
07:39 19.3 °C 16.9 °C 1015.5 hPa SW 7.9 km/h 16.1 km/h 86% 0 mm 134 W/m2
07:44 19.3 °C 16.9 °C 1015.5 hPa WSW 12.6 km/h 20.9 km/h 86% 0 mm 113 W/m2
07:49 19.4 °C 17 °C 1015.5 hPa WSW 7.2 km/h 17.7 km/h 86% 0 mm 148 W/m2
07:54 19.4 °C 17 °C 1015.5 hPa WSW 6.9 km/h 14.5 km/h 86% 0 mm 134 W/m2
07:59 19.6 °C 17.2 °C 1015.5 hPa WSW 8.4 km/h 22.5 km/h 86% 0 mm 137 W/m2
08:04 19.4 °C 17.1 °C 1015.8 hPa WSW 8 km/h 19.3 km/h 86% 0 mm 127 W/m2
08:09 19.5 °C 17.1 °C 1015.8 hPa WSW 12.6 km/h 20.9 km/h 86% 0 mm 98 W/m2
08:14 19.5 °C 17.1 °C 1015.8 hPa WSW 8.4 km/h 24.1 km/h 86% 0 mm 113 W/m2
08:19 19.5 °C 17.1 °C 1015.8 hPa SW 10.5 km/h 20.9 km/h 86% 0 mm 169 W/m2
08:24 19.5 °C 17.1 °C 1015.8 hPa WSW 13.5 km/h 24.1 km/h 86% 0 mm 176 W/m2
08:29 19.6 °C 17.2 °C 1015.8 hPa SW 8.4 km/h 20.9 km/h 86% 0 mm 169 W/m2
08:34 19.7 °C 17.2 °C 1015.8 hPa WSW 11.6 km/h 19.3 km/h 85.4% 0 mm 137 W/m2
08:39 19.8 °C 17.2 °C 1015.8 hPa WSW 11.6 km/h 20.9 km/h 85% 0 mm 141 W/m2
08:44 19.9 °C 17.3 °C 1015.8 hPa WSW 12.7 km/h 24.1 km/h 85% 0 mm 149 W/m2
08:49 20 °C 17.4 °C 1015.8 hPa SW 9 km/h 19.3 km/h 85% 0 mm 178 W/m2
08:54 20.1 °C 17.5 °C 1015.8 hPa WSW 8.5 km/h 17.7 km/h 85% 0 mm 206 W/m2
08:59 20.3 °C 17.5 °C 1015.8 hPa SW 7.4 km/h 17.7 km/h 84.2% 0 mm 186 W/m2
09:04 20.2 °C 17.4 °C 1016.1 hPa WSW 17.4 km/h 27.4 km/h 84% 0 mm 206 W/m2
09:09 20.1 °C 17.3 °C 1015.8 hPa SW 10.6 km/h 25.7 km/h 84% 0 mm 149 W/m2
09:14 19.9 °C 17.2 °C 1015.8 hPa WSW 11.9 km/h 25.7 km/h 84.6% 0 mm 149 W/m2
09:18 19.9 °C 17.3 °C 1015.8 hPa SW 7.2 km/h 19.3 km/h 85% 0 mm 142 W/m2
09:24 19.9 °C 17.3 °C 1015.8 hPa SSW 11.3 km/h 19.3 km/h 85% 0 mm 120 W/m2
09:29 19.9 °C 17.3 °C 1015.8 hPa WSW 13.8 km/h 20.9 km/h 85% 0 mm 113 W/m2
09:34 19.9 °C 17.3 °C 1015.8 hPa WSW 11.1 km/h 19.3 km/h 85% 0 mm 151 W/m2
09:39 19.9 °C 17.3 °C 1015.8 hPa WSW 10.6 km/h 20.9 km/h 85% 0 mm 151 W/m2
09:44 19.9 °C 17.3 °C 1015.8 hPa WSW 8 km/h 20.9 km/h 85% 0 mm 218 W/m2
09:49 20.1 °C 17.5 °C 1015.8 hPa WSW 9.3 km/h 19.3 km/h 85% 0 mm 267 W/m2
09:54 20.2 °C 17.6 °C 1015.5 hPa SW 11.6 km/h 24.1 km/h 85% 0 mm 294 W/m2
09:59 20.3 °C 17.7 °C 1015.5 hPa WSW 10.8 km/h 29 km/h 85% 0 mm 343 W/m2
10:04 20.4 °C 17.7 °C 1015.5 hPa WSW 12.9 km/h 29 km/h 84% 0 mm 306 W/m2
10:09 20.7 °C 17.8 °C 1015.5 hPa SW 12.2 km/h 22.5 km/h 83.4% 0 mm 320 W/m2
10:14 20.8 °C 17.8 °C 1015.5 hPa WSW 17.1 km/h 24.1 km/h 83% 0 mm 304 W/m2
10:19 20.8 °C 17.8 °C 1015.5 hPa WSW 12.9 km/h 30.6 km/h 83% 0 mm 295 W/m2
10:24 20.9 °C 17.9 °C 1015.5 hPa SW 10 km/h 22.5 km/h 83% 0 mm 295 W/m2
10:29 20.9 °C 17.8 °C 1015.5 hPa SW 14.3 km/h 24.1 km/h 82.3% 0 mm 237 W/m2
10:34 20.9 °C 17.7 °C 1015.5 hPa SW 12.9 km/h 22.5 km/h 82% 0 mm 206 W/m2
10:39 20.9 °C 17.7 °C 1015.5 hPa WSW 17.4 km/h 25.7 km/h 82% 0 mm 114 W/m2
10:44 20.9 °C 17.7 °C 1015.5 hPa WSW 11.9 km/h 19.3 km/h 82% 0 mm 165 W/m2
10:49 21.1 °C 17.8 °C 1015.5 hPa SW 9.7 km/h 14.5 km/h 82% 0 mm 148 W/m2
10:54 21.1 °C 17.9 °C 1015.5 hPa WSW 10.3 km/h 22.5 km/h 82% 0 mm 151 W/m2
10:59 21.2 °C 18 °C 1015.5 hPa WSW 10.5 km/h 19.3 km/h 82% 0 mm 156 W/m2
11:04 21.3 °C 17.9 °C 1015.5 hPa WSW 7.7 km/h 16.1 km/h 81.4% 0 mm 230 W/m2
11:09 21.4 °C 18 °C 1015.5 hPa WSW 11.9 km/h 20.9 km/h 81% 0 mm 248 W/m2
11:14 21.4 °C 18 °C 1015.5 hPa WSW 12.9 km/h 22.5 km/h 81% 0 mm 309 W/m2
11:19 21.5 °C 18.1 °C 1015.5 hPa WSW 8.4 km/h 22.5 km/h 80.8% 0 mm 272 W/m2
11:24 21.7 °C 18.2 °C 1015.8 hPa WSW 13.2 km/h 29 km/h 80.4% 0 mm 236 W/m2
11:29 21.7 °C 18.1 °C 1015.8 hPa WSW 11.9 km/h 32.2 km/h 80.2% 0 mm 195 W/m2
11:34 21.5 °C 18.1 °C 1015.8 hPa WSW 16.1 km/h 30.6 km/h 81% 0 mm 223 W/m2
11:39 21.3 °C 18.1 °C 1015.8 hPa WSW 12.9 km/h 24.1 km/h 81.8% 0 mm 285 W/m2
11:44 21.6 °C 18.3 °C 1015.8 hPa WSW 12.2 km/h 24.1 km/h 82% 0 mm 218 W/m2
11:49 21.6 °C 18.3 °C 1015.8 hPa West 14 km/h 22.5 km/h 81.8% 0 mm 162 W/m2
11:54 21.4 °C 18.2 °C 1015.8 hPa West 15.4 km/h 24.1 km/h 82% 0 mm 172 W/m2
11:59 21.4 °C 18.2 °C 1015.8 hPa West 12.2 km/h 24.1 km/h 82% 0 mm 171 W/m2
12:04 21.5 °C 18.3 °C 1015.8 hPa WSW 9 km/h 17.7 km/h 82% 0 mm 276 W/m2
12:09 21.8 °C 18.4 °C 1015.8 hPa WSW 14.2 km/h 20.9 km/h 81.2% 0 mm 334 W/m2
12:14 22.1 °C 18.5 °C 1015.8 hPa WSW 11.9 km/h 20.9 km/h 80% 0 mm 315 W/m2
12:19 22.2 °C 18.5 °C 1015.5 hPa WSW 12.1 km/h 27.4 km/h 79.2% 0 mm 436 W/m2
12:24 22.3 °C 18.4 °C 1015.5 hPa West 10.6 km/h 22.5 km/h 78.8% 0 mm 308 W/m2
12:29 22.3 °C 18.3 °C 1015.8 hPa WSW 14.5 km/h 25.7 km/h 78.2% 0 mm 241 W/m2
12:34 22.3 °C 18.4 °C 1015.5 hPa WSW 8.2 km/h 22.5 km/h 79% 0 mm 167 W/m2
12:39 22.3 °C 18.5 °C 1015.5 hPa West 9.3 km/h 17.7 km/h 79% 0 mm 153 W/m2
12:44 22.3 °C 18.4 °C 1015.5 hPa West 14.8 km/h 24.1 km/h 78.6% 0 mm 241 W/m2
12:49 22.3 °C 18.3 °C 1015.5 hPa West 9.5 km/h 22.5 km/h 78% 0 mm 287 W/m2
12:53 22.5 °C 18.5 °C 1015.5 hPa West 14.5 km/h 19.3 km/h 78% 0 mm 292 W/m2
12:59 22.6 °C 18.6 °C 1015.5 hPa WSW 11.4 km/h 25.7 km/h 77.8% 0 mm 274 W/m2
13:04 22.7 °C 18.7 °C 1015.5 hPa West 8.5 km/h 24.1 km/h 78% 0 mm 387 W/m2
13:09 22.4 °C 18.4 °C 1015.5 hPa WSW 17.4 km/h 29 km/h 78% 0 mm 385 W/m2
13:14 22.3 °C 18.5 °C 1015.5 hPa WSW 16.3 km/h 27.4 km/h 79% 0 mm 547 W/m2
13:19 22.4 °C 18.6 °C 1015.5 hPa West 15.1 km/h 29 km/h 79% 0 mm 313 W/m2
13:24 22.3 °C 18.6 °C 1015.5 hPa WNW 13.8 km/h 27.4 km/h 79.2% 0 mm 329 W/m2
13:29 22.2 °C 18.6 °C 1015.5 hPa West 9.2 km/h 22.5 km/h 80% 0 mm 309 W/m2
13:34 22.2 °C 18.7 °C 1015.5 hPa West 13.2 km/h 32.2 km/h 80.4% 0 mm 325 W/m2
13:39 22.3 °C 18.7 °C 1015.5 hPa WSW 15.4 km/h 20.9 km/h 80% 0 mm 327 W/m2
13:44 22.3 °C 18.7 °C 1015.5 hPa WNW 16.1 km/h 25.7 km/h 80% 0 mm 355 W/m2
13:49 22.2 °C 18.7 °C 1015.5 hPa West 14.8 km/h 22.5 km/h 80.8% 0 mm 329 W/m2
13:54 21.9 °C 18.7 °C 1015.5 hPa West 20.4 km/h 27.4 km/h 81.6% 0 mm 383 W/m2
13:59 21.8 °C 18.7 °C 1015.5 hPa WNW 13 km/h 27.4 km/h 82.6% 0 mm 427 W/m2
14:04 21.7 °C 18.7 °C 1015.5 hPa WNW 11.4 km/h 22.5 km/h 83% 0 mm 308 W/m2
14:09 21.6 °C 18.7 °C 1015.5 hPa WNW 10.9 km/h 22.5 km/h 83.2% 0 mm 346 W/m2
14:14 21.7 °C 18.9 °C 1015.5 hPa WNW 9 km/h 16.1 km/h 84% 0 mm 306 W/m2
14:19 21.9 °C 18.9 °C 1015.1 hPa WSW 12.1 km/h 14.5 km/h 83.2% 0 mm 385 W/m2
14:24 22.2 °C 19.2 °C 1015.1 hPa West 7.7 km/h 16.1 km/h 82.8% 0 mm 577 W/m2
14:29 22.7 °C 19.3 °C 1015.1 hPa WSW 10.6 km/h 19.3 km/h 81.2% 0 mm 555 W/m2
14:34 22.9 °C 19.2 °C 1015.1 hPa West 13.7 km/h 22.5 km/h 79.2% 0 mm 664 W/m2
14:39 23.2 °C 19.1 °C 1015.1 hPa West 16.4 km/h 33.8 km/h 77.8% 0 mm 1056 W/m2
14:44 23.5 °C 19.1 °C 1015.1 hPa West 10.6 km/h 27.4 km/h 76.4% 0 mm 991 W/m2
14:49 23.7 °C 19.2 °C 1015.1 hPa WNW 15.1 km/h 25.7 km/h 75.8% 0 mm 599 W/m2
14:54 23.7 °C 19 °C 1015.1 hPa West 11.6 km/h 24.1 km/h 75% 0 mm 438 W/m2
14:59 23.8 °C 18.8 °C 1015.1 hPa WSW 12.2 km/h 24.1 km/h 74% 0 mm 728 W/m2
15:04 23.9 °C 19 °C 1014.8 hPa West 12.9 km/h 19.3 km/h 74% 0 mm 728 W/m2
15:09 23.9 °C 18.8 °C 1014.8 hPa West 11.3 km/h 20.9 km/h 73% 0 mm 311 W/m2
15:14 24.4 °C 19 °C 1014.8 hPa West 14.5 km/h 20.9 km/h 72% 0 mm 879 W/m2
15:19 24.7 °C 18.8 °C 1014.8 hPa WSW 18.3 km/h 29 km/h 70% 0 mm 942 W/m2
15:24 24.8 °C 18.7 °C 1014.8 hPa West 16.7 km/h 29 km/h 69% 0 mm 870 W/m2
15:29 24.9 °C 18.7 °C 1014.4 hPa WSW 15.8 km/h 27.4 km/h 68.6% 0 mm 865 W/m2
15:34 24.8 °C 18.6 °C 1014.4 hPa SW 18 km/h 29 km/h 68% 0 mm 865 W/m2
15:39 24.9 °C 18.7 °C 1014.4 hPa WSW 13.4 km/h 20.9 km/h 68.6% 0 mm 905 W/m2
15:44 25.1 °C 18.8 °C 1014.4 hPa West 13.5 km/h 24.1 km/h 68% 0 mm 336 W/m2
15:49 25.1 °C 18.8 °C 1014.4 hPa WSW 14.2 km/h 27.4 km/h 68% 0 mm 244 W/m2
15:54 24.9 °C 18.6 °C 1014.4 hPa West 15 km/h 24.1 km/h 67.8% 0 mm 350 W/m2
15:59 24.8 °C 18.6 °C 1014.4 hPa West 10.6 km/h 24.1 km/h 68.4% 0 mm 338 W/m2
16:04 24.8 °C 18.7 °C 1014.4 hPa WSW 11.9 km/h 20.9 km/h 69% 0 mm 334 W/m2
16:09 24.9 °C 18.7 °C 1014.4 hPa WSW 18.2 km/h 29 km/h 68.6% 0 mm 350 W/m2
16:14 24.7 °C 18.6 °C 1014.4 hPa WSW 12.6 km/h 29 km/h 68.8% 0 mm 359 W/m2
16:19 24.7 °C 18.6 °C 1014.4 hPa WSW 11.6 km/h 20.9 km/h 69% 0 mm 415 W/m2
16:24 24.7 °C 18.6 °C 1014.4 hPa West 13.2 km/h 19.3 km/h 69% 0 mm 308 W/m2
16:29 24.7 °C 18.7 °C 1014.4 hPa West 12.7 km/h 17.7 km/h 69.4% 0 mm 330 W/m2
16:34 24.6 °C 18.8 °C 1014.4 hPa West 12.6 km/h 20.9 km/h 70.2% 0 mm 294 W/m2
16:39 24.2 °C 18.8 °C 1014.4 hPa WNW 13.8 km/h 19.3 km/h 71.8% 0 mm 258 W/m2
16:44 24.1 °C 19 °C 1014.4 hPa WNW 5.8 km/h 14.5 km/h 73% 0 mm 264 W/m2
16:49 23.9 °C 19 °C 1014.4 hPa NW 11.6 km/h 19.3 km/h 73.8% 0 mm 209 W/m2
16:54 23.8 °C 18.9 °C 1014.4 hPa WNW 9.8 km/h 17.7 km/h 74% 0 mm 193 W/m2
16:59 23.6 °C 18.9 °C 1014.4 hPa WNW 6.6 km/h 17.7 km/h 75% 0 mm 392 W/m2
17:04 23.6 °C 18.9 °C 1014.4 hPa WNW 9.8 km/h 19.3 km/h 75% 0 mm 311 W/m2
17:09 23.4 °C 18.8 °C 1014.4 hPa NW 9.5 km/h 17.7 km/h 75.8% 0 mm 225 W/m2
17:14 23.3 °C 18.8 °C 1014.4 hPa WNW 6.4 km/h 17.7 km/h 76% 0 mm 199 W/m2
17:19 23.2 °C 18.9 °C 1014.4 hPa NW 7.9 km/h 22.5 km/h 77% 0 mm 186 W/m2
17:24 23 °C 18.7 °C 1014.4 hPa NW 7.2 km/h 22.5 km/h 77% 0 mm 114 W/m2
17:29 22.8 °C 18.6 °C 1014.4 hPa WNW 6.6 km/h 19.3 km/h 77% 0 mm 223 W/m2
17:34 22.9 °C 18.7 °C 1014.4 hPa NW 8 km/h 14.5 km/h 77% 0 mm 306 W/m2
17:39 23.1 °C 18.8 °C 1014.4 hPa WNW 9.3 km/h 17.7 km/h 77% 0 mm 229 W/m2
17:44 22.9 °C 18.7 °C 1014.4 hPa NW 7.9 km/h 16.1 km/h 77% 0 mm 221 W/m2
17:49 22.8 °C 18.7 °C 1014.4 hPa WNW 8.2 km/h 14.5 km/h 77% 0 mm 176 W/m2
17:54 22.8 °C 18.6 °C 1014.4 hPa WNW 6.6 km/h 12.9 km/h 77% 0 mm 155 W/m2
17:59 22.8 °C 18.6 °C 1014.4 hPa West 6.9 km/h 12.9 km/h 77% 0 mm 167 W/m2
18:04 22.8 °C 18.6 °C 1014.4 hPa WNW 8.4 km/h 14.5 km/h 77% 0 mm 172 W/m2
18:09 22.7 °C 18.6 °C 1014.4 hPa WNW 7.9 km/h 19.3 km/h 77% 0 mm 155 W/m2
18:14 22.6 °C 18.4 °C 1014.4 hPa West 9.2 km/h 19.3 km/h 77% 0 mm 102 W/m2
18:18 22.6 °C 18.4 °C 1014.4 hPa West 6.8 km/h 14.5 km/h 77.3% 0 mm 120 W/m2
18:24 22.7 °C 18.4 °C 1014.4 hPa West 8 km/h 16.1 km/h 77% 0 mm 216 W/m2
18:29 22.8 °C 18.6 °C 1014.4 hPa WSW 10.6 km/h 19.3 km/h 77% 0 mm 237 W/m2
18:34 23 °C 18.7 °C 1014.4 hPa WSW 8.5 km/h 16.1 km/h 77% 0 mm 255 W/m2
18:39 23.3 °C 18.8 °C 1014.4 hPa WSW 9.5 km/h 19.3 km/h 76.4% 0 mm 383 W/m2
18:44 23.4 °C 18.9 °C 1014.4 hPa WSW 7.2 km/h 14.5 km/h 76% 0 mm 383 W/m2
18:49 23.4 °C 18.9 °C 1014.4 hPa West 4.3 km/h 12.9 km/h 76% 0 mm 369 W/m2
18:54 23.6 °C 19.1 °C 1014.4 hPa WNW 7.6 km/h 14.5 km/h 76% 0 mm 329 W/m2
18:59 23.6 °C 19.1 °C 1014.1 hPa WNW 6.9 km/h 17.7 km/h 76% 0 mm 160 W/m2
19:04 23.3 °C 18.8 °C 1014.1 hPa West 6.3 km/h 16.1 km/h 76% 0 mm 118 W/m2
19:09 23.2 °C 18.8 °C 1014.1 hPa West 6.4 km/h 11.3 km/h 76.4% 0 mm 264 W/m2
19:14 23.3 °C 19 °C 1014.1 hPa West 7.2 km/h 12.9 km/h 76.8% 0 mm 262 W/m2
19:19 23.3 °C 18.8 °C 1014.1 hPa WSW 5.1 km/h 8 km/h 76% 0 mm 216 W/m2
19:24 23.2 °C 18.8 °C 1014.1 hPa WSW 6.8 km/h 12.9 km/h 76.4% 0 mm 107 W/m2
19:29 23.1 °C 18.8 °C 1014.1 hPa WSW 3.9 km/h 8 km/h 77% 0 mm 47 W/m2
19:34 22.9 °C 18.7 °C 1014.1 hPa West 6.8 km/h 11.3 km/h 77% 0 mm 109 W/m2
19:39 22.9 °C 18.7 °C 1014.1 hPa WNW 4.5 km/h 8 km/h 77% 0 mm 44 W/m2
19:44 22.8 °C 18.6 °C 1013.8 hPa WNW 1.3 km/h 4.8 km/h 77% 0 mm 42 W/m2
19:49 22.8 °C 18.6 °C 1014.1 hPa West 3.1 km/h 8 km/h 77% 0 mm 40 W/m2
19:54 22.8 °C 18.6 °C 1013.8 hPa WSW 5.8 km/h 11.3 km/h 77% 0 mm 18 W/m2
19:59 22.8 °C 18.7 °C 1013.8 hPa WSW 5.5 km/h 9.7 km/h 77% 0 mm 7 W/m2
20:04 22.8 °C 18.6 °C 1014.1 hPa WSW 6 km/h 11.3 km/h 77% 0 mm 12 W/m2
20:09 22.8 °C 18.7 °C 1014.1 hPa SW 4.7 km/h 8 km/h 77% 0 mm 12 W/m2
20:14 22.8 °C 18.6 °C 1014.1 hPa WSW 3.2 km/h 8 km/h 77% 0 mm 5 W/m2
20:18 22.7 °C 18.6 °C 1014.1 hPa West 6.4 km/h 12.9 km/h 77.8% 0 mm 0 W/m2
20:24 22.4 °C 18.4 °C 1014.1 hPa WNW 6.6 km/h 11.3 km/h 78% 0 mm 0 W/m2
20:29 22.2 °C 18.2 °C 1014.1 hPa WNW 7.4 km/h 14.5 km/h 78.2% 0 mm 5 W/m2
20:34 21.9 °C 18.2 °C 1014.1 hPa WNW 8.4 km/h 11.3 km/h 79% 0 mm 7 W/m2
20:39 21.8 °C 18.2 °C 1014.1 hPa West 6 km/h 11.3 km/h 79.4% 0 mm 0 W/m2
20:44 21.7 °C 18.2 °C 1014.1 hPa West 11.3 km/h 17.7 km/h 80% 0 mm 0 W/m2
20:49 21.6 °C 18.2 °C 1014.1 hPa West 7.2 km/h 14.5 km/h 81% 0 mm 0 W/m2
20:54 21.3 °C 17.9 °C 1014.1 hPa West 8.7 km/h 16.1 km/h 81% 0 mm 0 W/m2
20:59 21.2 °C 18.1 °C 1014.1 hPa WNW 6.3 km/h 14.5 km/h 82% 0 mm 0 W/m2
21:04 21.1 °C 17.9 °C 1014.1 hPa WNW 6 km/h 9.7 km/h 82% 0 mm 0 W/m2
21:09 21.1 °C 18 °C 1014.1 hPa WNW 4 km/h 11.3 km/h 82.4% 0 mm 0 W/m2
21:14 21.1 °C 18.1 °C 1014.1 hPa WNW 4 km/h 8 km/h 83% 0 mm 0 W/m2
21:19 21.1 °C 18.1 °C 1014.1 hPa WNW 2.1 km/h 6.4 km/h 83% 0 mm 0 W/m2
21:24 21.1 °C 18.1 °C 1014.4 hPa West 2.7 km/h 8 km/h 83% 0 mm 0 W/m2
21:29 21.1 °C 18.1 °C 1014.4 hPa West 4 km/h 9.7 km/h 83% 0 mm 0 W/m2
21:34 21 °C 17.9 °C 1014.4 hPa West 4.3 km/h 12.9 km/h 82.4% 0 mm 0 W/m2
21:39 21 °C 17.7 °C 1014.4 hPa WSW 6.4 km/h 12.9 km/h 81.8% 0 mm 0 W/m2
21:44 20.9 °C 17.5 °C 1014.4 hPa SW 5.8 km/h 11.3 km/h 81% 0 mm 0 W/m2
21:49 20.9 °C 17.5 °C 1014.4 hPa SW 7.1 km/h 12.9 km/h 81% 0 mm 0 W/m2
21:54 20.8 °C 17.3 °C 1014.1 hPa SW 7.2 km/h 14.5 km/h 80.2% 0 mm 0 W/m2
21:59 20.7 °C 17.2 °C 1014.1 hPa SW 9.5 km/h 16.1 km/h 80.4% 0 mm 0 W/m2
22:04 20.7 °C 17.2 °C 1014.1 hPa SW 9.7 km/h 14.5 km/h 81% 0 mm 0 W/m2
22:09 20.6 °C 17.2 °C 1014.1 hPa SW 6.4 km/h 16.1 km/h 81% 0 mm 0 W/m2
22:14 20.5 °C 17.1 °C 1014.1 hPa SW 5 km/h 14.5 km/h 81% 0 mm 0 W/m2
22:19 20.4 °C 17 °C 1014.1 hPa SSW 4 km/h 14.5 km/h 81% 0 mm 0 W/m2
22:24 20.4 °C 17 °C 1014.1 hPa SW 7.1 km/h 11.3 km/h 81% 0 mm 0 W/m2
22:29 20.3 °C 16.9 °C 1014.1 hPa SSW 6.8 km/h 11.3 km/h 81% 0 mm 0 W/m2
22:34 20.2 °C 16.9 °C 1014.1 hPa SSW 5 km/h 11.3 km/h 81.6% 0 mm 0 W/m2
22:39 20.2 °C 17 °C 1014.1 hPa SSW 4.5 km/h 8 km/h 82% 0 mm 0 W/m2
22:44 20.2 °C 16.9 °C 1014.1 hPa SW 4.2 km/h 11.3 km/h 82% 0 mm 0 W/m2
22:49 20.1 °C 16.8 °C 1014.1 hPa West 2.7 km/h 8 km/h 82% 0 mm 0 W/m2
22:54 20 °C 16.8 °C 1014.1 hPa West 2.7 km/h 6.4 km/h 82% 0 mm 0 W/m2
22:59 20 °C 16.8 °C 1014.1 hPa SW 2.6 km/h 14.5 km/h 82% 0 mm 0 W/m2
23:04 19.9 °C 16.8 °C 1013.8 hPa SW 5.5 km/h 14.5 km/h 82% 0 mm 0 W/m2
23:09 19.9 °C 16.7 °C 1013.8 hPa South 2.6 km/h 8 km/h 82% 0 mm 0 W/m2
23:14 19.9 °C 16.7 °C 1013.8 hPa SSW 2.7 km/h 6.4 km/h 82% 0 mm 0 W/m2
23:19 19.8 °C 16.7 °C 1013.8 hPa SSW 3.4 km/h 8 km/h 82% 0 mm 0 W/m2
23:24 19.8 °C 16.6 °C 1013.8 hPa SSW 0.8 km/h 4.8 km/h 82% 0 mm 0 W/m2
23:29 19.7 °C 16.7 °C 1013.8 hPa SSW 2.3 km/h 4.8 km/h 83% 0 mm 0 W/m2
23:34 19.7 °C 16.7 °C 1013.8 hPa SSW 5.6 km/h 11.3 km/h 82.8% 0 mm 0 W/m2
23:39 19.5 °C 16.5 °C 1013.8 hPa SW 4.5 km/h 8 km/h 83% 0 mm 0 W/m2
23:44 19.4 °C 16.4 °C 1013.8 hPa SW 3.5 km/h 8 km/h 83% 0 mm 0 W/m2
23:49 19.4 °C 16.4 °C 1013.8 hPa SW 3.1 km/h 8 km/h 83% 0 mm 0 W/m2
23:54 19.3 °C 16.4 °C 1013.8 hPa SW 2.4 km/h 11.3 km/h 83.4% 0 mm 0 W/m2
23:58 19.3 °C 16.5 °C 1013.8 hPa SSW 8.4 km/h 17.7 km/h 84% 0 mm 0 W/m2
Bath Spa Weather
Compliments of Weather Underground - 2 mb